sensor_id;sensor_type;location;lat;lon;timestamp;P1;durP1;ratioP1;P2;durP2;ratioP2
11255;SDS011;5685;52.384;13.420;2023-01-29T00:02:19;68.40;;;35.90;;
11255;SDS011;5685;52.384;13.420;2023-01-29T00:05:21;68.80;;;35.93;;
11255;SDS011;5685;52.384;13.420;2023-01-29T00:08:24;68.60;;;35.93;;
11255;SDS011;5685;52.384;13.420;2023-01-29T00:11:29;68.80;;;35.90;;
11255;SDS011;5685;52.384;13.420;2023-01-29T00:14:31;68.70;;;35.83;;
11255;SDS011;5685;52.384;13.420;2023-01-29T00:17:34;68.10;;;35.70;;
11255;SDS011;5685;52.384;13.420;2023-01-29T00:20:36;68.83;;;35.97;;
11255;SDS011;5685;52.384;13.420;2023-01-29T00:23:39;68.23;;;35.83;;
11255;SDS011;5685;52.384;13.420;2023-01-29T00:26:44;68.17;;;35.80;;
11255;SDS011;5685;52.384;13.420;2023-01-29T00:29:49;68.70;;;36.00;;
11255;SDS011;5685;52.384;13.420;2023-01-29T00:33:11;68.60;;;36.07;;
11255;SDS011;5685;52.384;13.420;2023-01-29T00:36:14;68.37;;;35.97;;
11255;SDS011;5685;52.384;13.420;2023-01-29T00:39:18;68.20;;;35.97;;
11255;SDS011;5685;52.384;13.420;2023-01-29T00:42:25;67.90;;;35.60;;
11255;SDS011;5685;52.384;13.420;2023-01-29T00:45:45;68.67;;;36.03;;
11255;SDS011;5685;52.384;13.420;2023-01-29T00:48:48;68.70;;;36.10;;
11255;SDS011;5685;52.384;13.420;2023-01-29T00:51:51;68.50;;;35.80;;
11255;SDS011;5685;52.384;13.420;2023-01-29T00:55:11;68.47;;;35.80;;
11255;SDS011;5685;52.384;13.420;2023-01-29T00:58:15;68.10;;;35.63;;
11255;SDS011;5685;52.384;13.420;2023-01-29T01:01:21;68.20;;;35.87;;
11255;SDS011;5685;52.384;13.420;2023-01-29T01:04:38;67.73;;;35.87;;
11255;SDS011;5685;52.384;13.420;2023-01-29T01:07:40;67.73;;;35.83;;
11255;SDS011;5685;52.384;13.420;2023-01-29T01:10:43;68.10;;;35.90;;
11255;SDS011;5685;52.384;13.420;2023-01-29T01:13:46;68.73;;;36.17;;
11255;SDS011;5685;52.384;13.420;2023-01-29T01:16:49;68.13;;;35.87;;
11255;SDS011;5685;52.384;13.420;2023-01-29T01:19:52;68.50;;;36.10;;
11255;SDS011;5685;52.384;13.420;2023-01-29T01:22:54;68.00;;;35.80;;
11255;SDS011;5685;52.384;13.420;2023-01-29T01:25:57;67.53;;;35.60;;
11255;SDS011;5685;52.384;13.420;2023-01-29T01:29:02;68.17;;;36.00;;
11255;SDS011;5685;52.384;13.420;2023-01-29T01:32:05;67.97;;;35.87;;
11255;SDS011;5685;52.384;13.420;2023-01-29T01:35:08;68.50;;;36.07;;
11255;SDS011;5685;52.384;13.420;2023-01-29T01:38:11;67.47;;;35.73;;
11255;SDS011;5685;52.384;13.420;2023-01-29T01:41:14;68.27;;;36.10;;
11255;SDS011;5685;52.384;13.420;2023-01-29T01:47:56;67.40;;;35.73;;
11255;SDS011;5685;52.384;13.420;2023-01-29T01:51:02;66.93;;;35.60;;
11255;SDS011;5685;52.384;13.420;2023-01-29T01:54:06;67.50;;;35.80;;
11255;SDS011;5685;52.384;13.420;2023-01-29T01:57:11;67.20;;;35.70;;
11255;SDS011;5685;52.384;13.420;2023-01-29T02:00:25;67.53;;;35.80;;
11255;SDS011;5685;52.384;13.420;2023-01-29T02:03:28;67.23;;;35.73;;
11255;SDS011;5685;52.384;13.420;2023-01-29T02:06:50;66.57;;;35.57;;
11255;SDS011;5685;52.384;13.420;2023-01-29T02:10:13;67.10;;;35.63;;
11255;SDS011;5685;52.384;13.420;2023-01-29T02:13:17;66.70;;;35.77;;
11255;SDS011;5685;52.384;13.420;2023-01-29T02:16:21;66.60;;;35.67;;
11255;SDS011;5685;52.384;13.420;2023-01-29T02:19:26;66.80;;;35.60;;
11255;SDS011;5685;52.384;13.420;2023-01-29T02:22:45;67.20;;;35.93;;
11255;SDS011;5685;52.384;13.420;2023-01-29T02:26:14;66.70;;;35.60;;
11255;SDS011;5685;52.384;13.420;2023-01-29T02:29:29;67.53;;;35.97;;
11255;SDS011;5685;52.384;13.420;2023-01-29T02:32:39;67.30;;;35.87;;
11255;SDS011;5685;52.384;13.420;2023-01-29T02:35:55;67.20;;;35.83;;
11255;SDS011;5685;52.384;13.420;2023-01-29T02:39:00;66.30;;;35.57;;
11255;SDS011;5685;52.384;13.420;2023-01-29T02:42:10;66.77;;;35.80;;
11255;SDS011;5685;52.384;13.420;2023-01-29T02:45:18;67.03;;;35.87;;
11255;SDS011;5685;52.384;13.420;2023-01-29T02:48:25;66.27;;;35.57;;
11255;SDS011;5685;52.384;13.420;2023-01-29T02:51:35;66.23;;;35.63;;
11255;SDS011;5685;52.384;13.420;2023-01-29T02:54:40;66.63;;;35.70;;
11255;SDS011;5685;52.384;13.420;2023-01-29T02:57:45;66.40;;;35.60;;
11255;SDS011;5685;52.384;13.420;2023-01-29T03:00:53;66.47;;;35.77;;
11255;SDS011;5685;52.384;13.420;2023-01-29T03:03:59;66.60;;;35.70;;
11255;SDS011;5685;52.384;13.420;2023-01-29T03:07:05;66.97;;;35.77;;
11255;SDS011;5685;52.384;13.420;2023-01-29T03:10:22;66.70;;;35.70;;
11255;SDS011;5685;52.384;13.420;2023-01-29T03:13:28;66.07;;;35.60;;
11255;SDS011;5685;52.384;13.420;2023-01-29T03:16:38;66.30;;;35.60;;
11255;SDS011;5685;52.384;13.420;2023-01-29T03:19:42;66.37;;;36.07;;
11255;SDS011;5685;52.384;13.420;2023-01-29T03:22:47;66.10;;;35.70;;
11255;SDS011;5685;52.384;13.420;2023-01-29T03:25:52;66.13;;;35.70;;
11255;SDS011;5685;52.384;13.420;2023-01-29T03:29:14;66.83;;;35.83;;
11255;SDS011;5685;52.384;13.420;2023-01-29T03:32:36;66.80;;;35.83;;
11255;SDS011;5685;52.384;13.420;2023-01-29T03:35:41;66.87;;;35.90;;
11255;SDS011;5685;52.384;13.420;2023-01-29T03:38:47;66.50;;;35.93;;
11255;SDS011;5685;52.384;13.420;2023-01-29T03:41:52;66.57;;;35.73;;
11255;SDS011;5685;52.384;13.420;2023-01-29T03:44:59;66.30;;;35.77;;
11255;SDS011;5685;52.384;13.420;2023-01-29T03:48:09;66.30;;;35.77;;
11255;SDS011;5685;52.384;13.420;2023-01-29T03:51:16;66.60;;;36.03;;
11255;SDS011;5685;52.384;13.420;2023-01-29T03:54:27;66.37;;;35.77;;
11255;SDS011;5685;52.384;13.420;2023-01-29T03:57:34;66.40;;;36.00;;
11255;SDS011;5685;52.384;13.420;2023-01-29T04:00:39;67.07;;;35.97;;
11255;SDS011;5685;52.384;13.420;2023-01-29T04:03:46;66.73;;;35.70;;
11255;SDS011;5685;52.384;13.420;2023-01-29T04:06:53;66.97;;;36.20;;
11255;SDS011;5685;52.384;13.420;2023-01-29T04:09:59;66.87;;;36.00;;
11255;SDS011;5685;52.384;13.420;2023-01-29T04:13:04;66.17;;;36.03;;
11255;SDS011;5685;52.384;13.420;2023-01-29T04:16:10;66.33;;;35.73;;
11255;SDS011;5685;52.384;13.420;2023-01-29T04:19:16;66.83;;;35.87;;
11255;SDS011;5685;52.384;13.420;2023-01-29T04:22:19;66.60;;;35.73;;
11255;SDS011;5685;52.384;13.420;2023-01-29T04:25:25;67.00;;;35.97;;
11255;SDS011;5685;52.384;13.420;2023-01-29T04:28:32;67.00;;;35.97;;
11255;SDS011;5685;52.384;13.420;2023-01-29T04:31:44;67.17;;;36.20;;
11255;SDS011;5685;52.384;13.420;2023-01-29T04:35:00;67.33;;;36.10;;
11255;SDS011;5685;52.384;13.420;2023-01-29T04:38:10;67.50;;;36.00;;
11255;SDS011;5685;52.384;13.420;2023-01-29T04:41:19;67.20;;;36.00;;
11255;SDS011;5685;52.384;13.420;2023-01-29T04:44:27;67.20;;;36.13;;
11255;SDS011;5685;52.384;13.420;2023-01-29T04:47:39;67.23;;;36.07;;
11255;SDS011;5685;52.384;13.420;2023-01-29T04:50:52;66.07;;;35.60;;
11255;SDS011;5685;52.384;13.420;2023-01-29T04:53:58;66.57;;;35.70;;
11255;SDS011;5685;52.384;13.420;2023-01-29T04:57:08;66.47;;;35.73;;
11255;SDS011;5685;52.384;13.420;2023-01-29T05:00:13;67.07;;;35.80;;
11255;SDS011;5685;52.384;13.420;2023-01-29T05:03:18;67.03;;;36.00;;
11255;SDS011;5685;52.384;13.420;2023-01-29T05:06:25;67.10;;;35.80;;
11255;SDS011;5685;52.384;13.420;2023-01-29T05:09:28;66.97;;;35.70;;
11255;SDS011;5685;52.384;13.420;2023-01-29T05:12:31;67.23;;;35.87;;
11255;SDS011;5685;52.384;13.420;2023-01-29T05:15:35;67.43;;;36.03;;
11255;SDS011;5685;52.384;13.420;2023-01-29T05:18:39;66.73;;;35.70;;
11255;SDS011;5685;52.384;13.420;2023-01-29T05:21:44;67.27;;;35.93;;
11255;SDS011;5685;52.384;13.420;2023-01-29T05:24:48;66.90;;;35.80;;
11255;SDS011;5685;52.384;13.420;2023-01-29T05:27:51;67.73;;;36.20;;
11255;SDS011;5685;52.384;13.420;2023-01-29T05:31:10;68.20;;;36.17;;
11255;SDS011;5685;52.384;13.420;2023-01-29T05:34:13;67.37;;;35.87;;
11255;SDS011;5685;52.384;13.420;2023-01-29T05:37:17;67.53;;;35.97;;
11255;SDS011;5685;52.384;13.420;2023-01-29T05:40:20;66.67;;;35.70;;
11255;SDS011;5685;52.384;13.420;2023-01-29T05:43:23;66.87;;;35.73;;
11255;SDS011;5685;52.384;13.420;2023-01-29T05:46:26;67.30;;;35.93;;
11255;SDS011;5685;52.384;13.420;2023-01-29T05:49:29;66.80;;;35.93;;
11255;SDS011;5685;52.384;13.420;2023-01-29T05:52:33;67.57;;;36.00;;
11255;SDS011;5685;52.384;13.420;2023-01-29T05:55:35;67.57;;;36.17;;
11255;SDS011;5685;52.384;13.420;2023-01-29T05:58:38;67.17;;;35.97;;
11255;SDS011;5685;52.384;13.420;2023-01-29T06:01:41;67.87;;;36.03;;
11255;SDS011;5685;52.384;13.420;2023-01-29T06:04:43;67.03;;;35.83;;
11255;SDS011;5685;52.384;13.420;2023-01-29T06:07:47;68.60;;;36.47;;
11255;SDS011;5685;52.384;13.420;2023-01-29T06:10:50;67.93;;;36.07;;
11255;SDS011;5685;52.384;13.420;2023-01-29T06:13:53;67.97;;;36.20;;
11255;SDS011;5685;52.384;13.420;2023-01-29T06:16:55;67.20;;;35.90;;
11255;SDS011;5685;52.384;13.420;2023-01-29T06:19:58;67.83;;;36.20;;
11255;SDS011;5685;52.384;13.420;2023-01-29T06:23:02;67.77;;;36.10;;
11255;SDS011;5685;52.384;13.420;2023-01-29T06:26:05;67.97;;;36.20;;
11255;SDS011;5685;52.384;13.420;2023-01-29T06:29:09;67.53;;;36.17;;
11255;SDS011;5685;52.384;13.420;2023-01-29T06:32:12;68.13;;;36.13;;
11255;SDS011;5685;52.384;13.420;2023-01-29T06:35:14;68.00;;;36.10;;
11255;SDS011;5685;52.384;13.420;2023-01-29T06:38:19;67.07;;;35.80;;
11255;SDS011;5685;52.384;13.420;2023-01-29T06:41:22;68.20;;;36.17;;
11255;SDS011;5685;52.384;13.420;2023-01-29T06:44:25;68.07;;;36.10;;
11255;SDS011;5685;52.384;13.420;2023-01-29T06:47:28;68.73;;;36.37;;
11255;SDS011;5685;52.384;13.420;2023-01-29T06:50:30;68.07;;;36.07;;
11255;SDS011;5685;52.384;13.420;2023-01-29T06:53:35;68.53;;;36.40;;
11255;SDS011;5685;52.384;13.420;2023-01-29T06:56:38;68.37;;;36.27;;
11255;SDS011;5685;52.384;13.420;2023-01-29T06:59:41;68.43;;;36.27;;
11255;SDS011;5685;52.384;13.420;2023-01-29T07:02:44;68.00;;;36.00;;
11255;SDS011;5685;52.384;13.420;2023-01-29T07:05:49;67.47;;;35.87;;
11255;SDS011;5685;52.384;13.420;2023-01-29T07:08:54;68.03;;;36.10;;
11255;SDS011;5685;52.384;13.420;2023-01-29T07:11:56;68.40;;;36.30;;
11255;SDS011;5685;52.384;13.420;2023-01-29T07:14:59;68.27;;;36.13;;
11255;SDS011;5685;52.384;13.420;2023-01-29T07:18:02;68.57;;;36.27;;
11255;SDS011;5685;52.384;13.420;2023-01-29T07:21:11;68.20;;;36.23;;
11255;SDS011;5685;52.384;13.420;2023-01-29T07:24:15;68.20;;;36.17;;
11255;SDS011;5685;52.384;13.420;2023-01-29T07:27:18;68.60;;;36.30;;
11255;SDS011;5685;52.384;13.420;2023-01-29T07:30:21;68.00;;;36.00;;
11255;SDS011;5685;52.384;13.420;2023-01-29T07:33:23;68.63;;;36.20;;
11255;SDS011;5685;52.384;13.420;2023-01-29T07:36:26;68.40;;;36.10;;
11255;SDS011;5685;52.384;13.420;2023-01-29T07:39:30;68.27;;;36.10;;
11255;SDS011;5685;52.384;13.420;2023-01-29T07:42:33;68.83;;;36.23;;
11255;SDS011;5685;52.384;13.420;2023-01-29T07:45:37;68.87;;;36.37;;
11255;SDS011;5685;52.384;13.420;2023-01-29T07:48:40;68.20;;;36.10;;
11255;SDS011;5685;52.384;13.420;2023-01-29T07:51:42;68.30;;;36.10;;
11255;SDS011;5685;52.384;13.420;2023-01-29T07:54:46;68.83;;;36.37;;
11255;SDS011;5685;52.384;13.420;2023-01-29T07:57:53;68.73;;;36.20;;
11255;SDS011;5685;52.384;13.420;2023-01-29T08:00:56;68.77;;;36.40;;
11255;SDS011;5685;52.384;13.420;2023-01-29T08:03:59;68.67;;;36.07;;
11255;SDS011;5685;52.384;13.420;2023-01-29T08:07:02;68.87;;;36.07;;
11255;SDS011;5685;52.384;13.420;2023-01-29T08:10:06;68.40;;;36.13;;
11255;SDS011;5685;52.384;13.420;2023-01-29T08:13:10;68.80;;;36.17;;
11255;SDS011;5685;52.384;13.420;2023-01-29T08:16:13;68.60;;;36.00;;
11255;SDS011;5685;52.384;13.420;2023-01-29T08:19:16;69.07;;;36.30;;
11255;SDS011;5685;52.384;13.420;2023-01-29T08:22:18;68.60;;;36.03;;
11255;SDS011;5685;52.384;13.420;2023-01-29T08:25:22;68.73;;;36.20;;
11255;SDS011;5685;52.384;13.420;2023-01-29T08:28:25;68.80;;;36.23;;
11255;SDS011;5685;52.384;13.420;2023-01-29T08:31:28;68.93;;;36.20;;
11255;SDS011;5685;52.384;13.420;2023-01-29T08:34:31;68.67;;;36.13;;
11255;SDS011;5685;52.384;13.420;2023-01-29T08:37:33;68.60;;;36.27;;
11255;SDS011;5685;52.384;13.420;2023-01-29T08:40:37;68.67;;;36.30;;
11255;SDS011;5685;52.384;13.420;2023-01-29T08:43:40;68.97;;;36.30;;
11255;SDS011;5685;52.384;13.420;2023-01-29T08:46:44;69.13;;;36.63;;
11255;SDS011;5685;52.384;13.420;2023-01-29T08:49:46;68.40;;;36.00;;
11255;SDS011;5685;52.384;13.420;2023-01-29T08:52:49;68.77;;;36.10;;
11255;SDS011;5685;52.384;13.420;2023-01-29T08:55:53;69.20;;;36.27;;
11255;SDS011;5685;52.384;13.420;2023-01-29T08:58:56;69.07;;;36.47;;
11255;SDS011;5685;52.384;13.420;2023-01-29T09:01:59;69.03;;;36.37;;
11255;SDS011;5685;52.384;13.420;2023-01-29T09:05:01;68.83;;;36.10;;
11255;SDS011;5685;52.384;13.420;2023-01-29T09:08:05;68.90;;;36.37;;
11255;SDS011;5685;52.384;13.420;2023-01-29T09:11:10;69.20;;;36.27;;
11255;SDS011;5685;52.384;13.420;2023-01-29T09:14:13;69.00;;;36.17;;
11255;SDS011;5685;52.384;13.420;2023-01-29T09:17:16;68.93;;;36.27;;
11255;SDS011;5685;52.384;13.420;2023-01-29T09:20:18;68.87;;;36.20;;
11255;SDS011;5685;52.384;13.420;2023-01-29T09:23:21;68.33;;;36.03;;
11255;SDS011;5685;52.384;13.420;2023-01-29T09:26:26;68.97;;;36.27;;
11255;SDS011;5685;52.384;13.420;2023-01-29T09:29:28;69.40;;;36.53;;
11255;SDS011;5685;52.384;13.420;2023-01-29T09:32:32;69.03;;;36.30;;
11255;SDS011;5685;52.384;13.420;2023-01-29T09:35:35;69.00;;;36.20;;
11255;SDS011;5685;52.384;13.420;2023-01-29T09:38:40;68.80;;;36.20;;
11255;SDS011;5685;52.384;13.420;2023-01-29T09:41:47;68.90;;;36.20;;
11255;SDS011;5685;52.384;13.420;2023-01-29T09:44:57;69.13;;;36.40;;
11255;SDS011;5685;52.384;13.420;2023-01-29T09:48:03;68.47;;;36.07;;
11255;SDS011;5685;52.384;13.420;2023-01-29T09:51:12;69.07;;;36.33;;
11255;SDS011;5685;52.384;13.420;2023-01-29T09:54:20;68.47;;;35.93;;
11255;SDS011;5685;52.384;13.420;2023-01-29T09:57:28;68.83;;;36.17;;
11255;SDS011;5685;52.384;13.420;2023-01-29T10:00:35;69.13;;;36.53;;
11255;SDS011;5685;52.384;13.420;2023-01-29T10:03:43;68.57;;;35.97;;
11255;SDS011;5685;52.384;13.420;2023-01-29T10:07:17;69.00;;;36.53;;
11255;SDS011;5685;52.384;13.420;2023-01-29T10:10:30;68.83;;;36.13;;
11255;SDS011;5685;52.384;13.420;2023-01-29T10:13:43;68.93;;;36.40;;
11255;SDS011;5685;52.384;13.420;2023-01-29T10:16:54;69.27;;;36.40;;
11255;SDS011;5685;52.384;13.420;2023-01-29T10:20:09;69.27;;;36.27;;
11255;SDS011;5685;52.384;13.420;2023-01-29T10:23:31;69.10;;;36.20;;
11255;SDS011;5685;52.384;13.420;2023-01-29T10:26:35;69.13;;;36.17;;
11255;SDS011;5685;52.384;13.420;2023-01-29T10:29:41;68.93;;;36.20;;
11255;SDS011;5685;52.384;13.420;2023-01-29T10:32:45;68.77;;;36.03;;
11255;SDS011;5685;52.384;13.420;2023-01-29T10:35:50;69.23;;;36.23;;
11255;SDS011;5685;52.384;13.420;2023-01-29T10:38:55;68.60;;;36.10;;
11255;SDS011;5685;52.384;13.420;2023-01-29T10:42:04;68.70;;;36.23;;
11255;SDS011;5685;52.384;13.420;2023-01-29T10:45:17;68.90;;;36.20;;
11255;SDS011;5685;52.384;13.420;2023-01-29T10:51:52;68.70;;;36.03;;
11255;SDS011;5685;52.384;13.420;2023-01-29T10:55:03;68.93;;;36.30;;
11255;SDS011;5685;52.384;13.420;2023-01-29T10:58:18;69.10;;;36.23;;
11255;SDS011;5685;52.384;13.420;2023-01-29T11:01:27;68.83;;;36.37;;
11255;SDS011;5685;52.384;13.420;2023-01-29T11:04:30;68.47;;;36.27;;
11255;SDS011;5685;52.384;13.420;2023-01-29T11:07:33;68.10;;;36.03;;
11255;SDS011;5685;52.384;13.420;2023-01-29T11:10:37;67.93;;;36.13;;
11255;SDS011;5685;52.384;13.420;2023-01-29T11:13:43;68.50;;;36.37;;
11255;SDS011;5685;52.384;13.420;2023-01-29T11:16:51;68.57;;;36.63;;
11255;SDS011;5685;52.384;13.420;2023-01-29T11:19:54;68.53;;;36.30;;
11255;SDS011;5685;52.384;13.420;2023-01-29T11:22:56;68.47;;;36.20;;
11255;SDS011;5685;52.384;13.420;2023-01-29T11:25:59;68.50;;;36.27;;
11255;SDS011;5685;52.384;13.420;2023-01-29T11:29:27;68.40;;;36.13;;
11255;SDS011;5685;52.384;13.420;2023-01-29T11:32:34;68.53;;;36.43;;
11255;SDS011;5685;52.384;13.420;2023-01-29T11:35:37;69.23;;;36.50;;
11255;SDS011;5685;52.384;13.420;2023-01-29T11:38:40;68.57;;;36.33;;
11255;SDS011;5685;52.384;13.420;2023-01-29T11:41:43;68.67;;;36.40;;
11255;SDS011;5685;52.384;13.420;2023-01-29T11:44:48;68.80;;;36.43;;
11255;SDS011;5685;52.384;13.420;2023-01-29T11:47:53;68.33;;;36.23;;
11255;SDS011;5685;52.384;13.420;2023-01-29T11:50:56;68.57;;;36.27;;
11255;SDS011;5685;52.384;13.420;2023-01-29T11:54:01;68.67;;;36.50;;
11255;SDS011;5685;52.384;13.420;2023-01-29T11:57:04;68.20;;;36.13;;
11255;SDS011;5685;52.384;13.420;2023-01-29T12:00:23;68.33;;;36.23;;
11255;SDS011;5685;52.384;13.420;2023-01-29T12:03:31;68.93;;;36.50;;
11255;SDS011;5685;52.384;13.420;2023-01-29T12:06:36;69.03;;;36.70;;
11255;SDS011;5685;52.384;13.420;2023-01-29T12:09:47;68.80;;;36.37;;
11255;SDS011;5685;52.384;13.420;2023-01-29T12:12:52;68.63;;;36.37;;
11255;SDS011;5685;52.384;13.420;2023-01-29T12:16:17;68.80;;;36.70;;
11255;SDS011;5685;52.384;13.420;2023-01-29T12:19:26;68.17;;;36.30;;
11255;SDS011;5685;52.384;13.420;2023-01-29T12:22:32;68.40;;;36.40;;
11255;SDS011;5685;52.384;13.420;2023-01-29T12:25:43;68.20;;;36.30;;
11255;SDS011;5685;52.384;13.420;2023-01-29T12:28:53;68.60;;;36.53;;
11255;SDS011;5685;52.384;13.420;2023-01-29T12:32:04;68.17;;;36.27;;
11255;SDS011;5685;52.384;13.420;2023-01-29T12:35:13;68.47;;;36.53;;
11255;SDS011;5685;52.384;13.420;2023-01-29T12:38:20;68.10;;;36.13;;
11255;SDS011;5685;52.384;13.420;2023-01-29T12:41:29;68.77;;;36.60;;
11255;SDS011;5685;52.384;13.420;2023-01-29T12:44:37;68.80;;;36.47;;
11255;SDS011;5685;52.384;13.420;2023-01-29T12:47:43;68.33;;;36.33;;
11255;SDS011;5685;52.384;13.420;2023-01-29T12:50:49;68.37;;;36.30;;
11255;SDS011;5685;52.384;13.420;2023-01-29T12:53:54;68.33;;;36.37;;
11255;SDS011;5685;52.384;13.420;2023-01-29T12:56:58;68.37;;;36.40;;
11255;SDS011;5685;52.384;13.420;2023-01-29T13:00:04;68.43;;;36.43;;
11255;SDS011;5685;52.384;13.420;2023-01-29T13:03:13;68.00;;;36.40;;
11255;SDS011;5685;52.384;13.420;2023-01-29T13:06:22;68.10;;;36.30;;
11255;SDS011;5685;52.384;13.420;2023-01-29T13:09:29;68.83;;;36.67;;
11255;SDS011;5685;52.384;13.420;2023-01-29T13:12:33;68.67;;;36.43;;
11255;SDS011;5685;52.384;13.420;2023-01-29T13:15:37;68.40;;;36.37;;
11255;SDS011;5685;52.384;13.420;2023-01-29T13:18:41;68.97;;;36.53;;
11255;SDS011;5685;52.384;13.420;2023-01-29T13:21:48;68.73;;;36.60;;
11255;SDS011;5685;52.384;13.420;2023-01-29T13:24:51;68.90;;;36.60;;
11255;SDS011;5685;52.384;13.420;2023-01-29T13:27:55;68.43;;;36.40;;
11255;SDS011;5685;52.384;13.420;2023-01-29T13:31:11;68.53;;;36.53;;
11255;SDS011;5685;52.384;13.420;2023-01-29T13:34:27;68.67;;;36.50;;
11255;SDS011;5685;52.384;13.420;2023-01-29T13:37:32;68.43;;;36.57;;
11255;SDS011;5685;52.384;13.420;2023-01-29T13:40:36;69.07;;;36.60;;
11255;SDS011;5685;52.384;13.420;2023-01-29T13:43:39;68.73;;;36.70;;
11255;SDS011;5685;52.384;13.420;2023-01-29T13:46:45;68.93;;;36.63;;
11255;SDS011;5685;52.384;13.420;2023-01-29T13:49:53;68.83;;;36.37;;
11255;SDS011;5685;52.384;13.420;2023-01-29T13:52:59;68.67;;;36.50;;
11255;SDS011;5685;52.384;13.420;2023-01-29T13:59:50;68.50;;;36.30;;
11255;SDS011;5685;52.384;13.420;2023-01-29T14:06:37;68.87;;;36.50;;
11255;SDS011;5685;52.384;13.420;2023-01-29T14:16:33;69.10;;;36.60;;
11255;SDS011;5685;52.384;13.420;2023-01-29T14:19:36;68.53;;;36.40;;
11255;SDS011;5685;52.384;13.420;2023-01-29T14:22:39;68.90;;;36.50;;
11255;SDS011;5685;52.384;13.420;2023-01-29T14:25:43;68.63;;;36.30;;
11255;SDS011;5685;52.384;13.420;2023-01-29T14:28:51;68.27;;;36.37;;
11255;SDS011;5685;52.384;13.420;2023-01-29T14:31:57;68.90;;;36.53;;
11255;SDS011;5685;52.384;13.420;2023-01-29T14:35:01;68.83;;;36.57;;
11255;SDS011;5685;52.384;13.420;2023-01-29T14:38:05;68.97;;;36.40;;
11255;SDS011;5685;52.384;13.420;2023-01-29T14:41:13;69.43;;;36.70;;
11255;SDS011;5685;52.384;13.420;2023-01-29T14:48:17;69.27;;;36.70;;
11255;SDS011;5685;52.384;13.420;2023-01-29T14:51:42;68.37;;;36.40;;
11255;SDS011;5685;52.384;13.420;2023-01-29T14:54:46;69.00;;;36.60;;
11255;SDS011;5685;52.384;13.420;2023-01-29T14:57:50;68.93;;;36.50;;
11255;SDS011;5685;52.384;13.420;2023-01-29T15:00:54;69.53;;;36.80;;
11255;SDS011;5685;52.384;13.420;2023-01-29T15:03:58;68.83;;;36.50;;
11255;SDS011;5685;52.384;13.420;2023-01-29T15:07:04;69.70;;;36.80;;
11255;SDS011;5685;52.384;13.420;2023-01-29T15:10:16;69.07;;;36.60;;
11255;SDS011;5685;52.384;13.420;2023-01-29T15:13:25;68.87;;;36.40;;
11255;SDS011;5685;52.384;13.420;2023-01-29T15:16:33;69.03;;;36.50;;
11255;SDS011;5685;52.384;13.420;2023-01-29T15:19:40;69.43;;;36.80;;
11255;SDS011;5685;52.384;13.420;2023-01-29T15:22:44;69.13;;;36.50;;
11255;SDS011;5685;52.384;13.420;2023-01-29T15:25:48;69.27;;;36.80;;
11255;SDS011;5685;52.384;13.420;2023-01-29T15:28:54;69.17;;;36.50;;
11255;SDS011;5685;52.384;13.420;2023-01-29T15:31:58;68.97;;;36.70;;
11255;SDS011;5685;52.384;13.420;2023-01-29T15:35:04;69.10;;;36.60;;
11255;SDS011;5685;52.384;13.420;2023-01-29T15:38:13;68.73;;;36.40;;
11255;SDS011;5685;52.384;13.420;2023-01-29T15:41:18;68.87;;;36.60;;
11255;SDS011;5685;52.384;13.420;2023-01-29T15:44:24;69.07;;;36.60;;
11255;SDS011;5685;52.384;13.420;2023-01-29T15:47:27;69.17;;;36.63;;
11255;SDS011;5685;52.384;13.420;2023-01-29T15:50:34;69.17;;;36.60;;
11255;SDS011;5685;52.384;13.420;2023-01-29T15:53:39;69.07;;;36.63;;
11255;SDS011;5685;52.384;13.420;2023-01-29T15:56:45;68.97;;;36.47;;
11255;SDS011;5685;52.384;13.420;2023-01-29T15:59:52;69.37;;;36.67;;
11255;SDS011;5685;52.384;13.420;2023-01-29T16:02:56;69.13;;;36.60;;
11255;SDS011;5685;52.384;13.420;2023-01-29T16:06:00;68.80;;;36.47;;
11255;SDS011;5685;52.384;13.420;2023-01-29T16:09:06;69.17;;;36.70;;
11255;SDS011;5685;52.384;13.420;2023-01-29T16:12:09;69.00;;;36.53;;
11255;SDS011;5685;52.384;13.420;2023-01-29T16:15:16;69.13;;;36.63;;
11255;SDS011;5685;52.384;13.420;2023-01-29T16:18:27;68.77;;;36.50;;
11255;SDS011;5685;52.384;13.420;2023-01-29T16:21:31;69.40;;;36.80;;
11255;SDS011;5685;52.384;13.420;2023-01-29T16:24:35;69.03;;;36.67;;
11255;SDS011;5685;52.384;13.420;2023-01-29T16:27:39;69.00;;;36.70;;
11255;SDS011;5685;52.384;13.420;2023-01-29T16:30:45;69.37;;;36.77;;
11255;SDS011;5685;52.384;13.420;2023-01-29T16:33:48;68.63;;;36.50;;
11255;SDS011;5685;52.384;13.420;2023-01-29T16:36:51;68.90;;;36.60;;
11255;SDS011;5685;52.384;13.420;2023-01-29T16:39:55;68.80;;;36.77;;
11255;SDS011;5685;52.384;13.420;2023-01-29T16:46:43;69.23;;;36.60;;
11255;SDS011;5685;52.384;13.420;2023-01-29T16:49:48;68.67;;;36.70;;
11255;SDS011;5685;52.384;13.420;2023-01-29T16:52:53;68.57;;;36.50;;
11255;SDS011;5685;52.384;13.420;2023-01-29T16:56:00;68.53;;;36.57;;
11255;SDS011;5685;52.384;13.420;2023-01-29T16:59:04;69.27;;;36.90;;
11255;SDS011;5685;52.384;13.420;2023-01-29T17:02:12;68.70;;;36.47;;
11255;SDS011;5685;52.384;13.420;2023-01-29T17:05:25;68.87;;;36.67;;
11255;SDS011;5685;52.384;13.420;2023-01-29T17:08:30;69.10;;;36.83;;
11255;SDS011;5685;52.384;13.420;2023-01-29T17:11:35;68.73;;;36.60;;
11255;SDS011;5685;52.384;13.420;2023-01-29T17:14:39;68.60;;;36.53;;
11255;SDS011;5685;52.384;13.420;2023-01-29T17:17:44;68.83;;;36.67;;
11255;SDS011;5685;52.384;13.420;2023-01-29T17:20:49;68.80;;;36.63;;
11255;SDS011;5685;52.384;13.420;2023-01-29T17:23:52;69.00;;;36.80;;
11255;SDS011;5685;52.384;13.420;2023-01-29T17:26:55;68.43;;;36.50;;
11255;SDS011;5685;52.384;13.420;2023-01-29T17:29:58;68.57;;;36.67;;
11255;SDS011;5685;52.384;13.420;2023-01-29T17:33:07;69.00;;;36.80;;
11255;SDS011;5685;52.384;13.420;2023-01-29T17:36:12;68.80;;;36.80;;
11255;SDS011;5685;52.384;13.420;2023-01-29T17:39:16;68.87;;;36.80;;
11255;SDS011;5685;52.384;13.420;2023-01-29T17:42:20;68.83;;;36.70;;
11255;SDS011;5685;52.384;13.420;2023-01-29T17:45:22;68.53;;;36.60;;
11255;SDS011;5685;52.384;13.420;2023-01-29T17:48:27;69.30;;;36.87;;
11255;SDS011;5685;52.384;13.420;2023-01-29T17:51:30;69.07;;;36.80;;
11255;SDS011;5685;52.384;13.420;2023-01-29T17:54:35;68.33;;;36.50;;
11255;SDS011;5685;52.384;13.420;2023-01-29T17:57:37;69.10;;;36.73;;
11255;SDS011;5685;52.384;13.420;2023-01-29T18:00:40;69.20;;;36.70;;
11255;SDS011;5685;52.384;13.420;2023-01-29T18:03:44;68.97;;;36.60;;
11255;SDS011;5685;52.384;13.420;2023-01-29T18:06:48;69.13;;;36.73;;
11255;SDS011;5685;52.384;13.420;2023-01-29T18:09:51;68.87;;;36.67;;
11255;SDS011;5685;52.384;13.420;2023-01-29T18:12:54;69.43;;;36.90;;
11255;SDS011;5685;52.384;13.420;2023-01-29T18:15:56;68.93;;;36.53;;
11255;SDS011;5685;52.384;13.420;2023-01-29T18:19:01;69.03;;;36.67;;
11255;SDS011;5685;52.384;13.420;2023-01-29T18:22:04;68.97;;;36.47;;
11255;SDS011;5685;52.384;13.420;2023-01-29T18:25:07;68.90;;;36.43;;
11255;SDS011;5685;52.384;13.420;2023-01-29T18:28:11;69.70;;;36.90;;
11255;SDS011;5685;52.384;13.420;2023-01-29T18:31:16;69.13;;;36.57;;
11255;SDS011;5685;52.384;13.420;2023-01-29T18:34:20;69.80;;;37.03;;
11255;SDS011;5685;52.384;13.420;2023-01-29T18:37:23;68.93;;;36.57;;